Time;durP1;ratioP1;P1;durP2;ratioP2;P2;SDS_P1;SDS_P2;PMS_P1;PMS_P2;Temp;Humidity;BMP_temperature;BMP_pressure;BME280_temperature;BME280_humidity;BME280_pressure;Samples;Min_cycle;Max_cycle;Signal;HPM_P1;HPM_P2
2022/02/19 00:00:13;;;;;;;4.88;1.10;;;7.40;99.90;;;;;;4984024;28;20190;-78
2022/02/19 00:02:39;;;;;;;17.25;1.98;;;7.50;99.90;;;;;;4965285;28;20514;-80
2022/02/19 00:05:06;;;;;;;11.60;2.67;;;7.40;99.90;;;;;;4986622;28;20249;-78
2022/02/19 00:07:32;;;;;;;9.27;2.00;;;7.40;99.90;;;;;;4981157;28;20352;-77
2022/02/19 00:09:58;;;;;;;6.05;1.63;;;7.40;99.90;;;;;;4982184;28;20664;-79
2022/02/19 00:12:28;;;;;;;21.23;1.70;;;7.50;99.90;;;;;;4985843;28;20309;-78
2022/02/19 00:14:54;;;;;;;15.05;1.90;;;7.40;99.90;;;;;;4972250;28;20206;-78
2022/02/19 00:17:21;;;;;;;4.68;1.50;;;7.30;99.90;;;;;;4969685;28;20189;-78
2022/02/19 00:19:53;;;;;;;4.05;1.50;;;7.30;99.90;;;;;;4984526;28;20166;-78
2022/02/19 00:22:20;;;;;;;12.32;1.90;;;7.20;99.90;;;;;;4965502;28;20181;-78
2022/02/19 00:24:45;;;;;;;9.05;1.10;;;7.10;99.90;;;;;;4983078;28;20257;-78
2022/02/19 00:27:17;;;;;;;4.68;1.17;;;7.00;99.90;;;;;;4983075;28;20170;-78
2022/02/19 00:29:47;;;;;;;8.52;1.40;;;7.00;99.90;;;;;;4982183;28;20284;-79
2022/02/19 00:32:13;;;;;;;7.88;1.10;;;6.90;99.90;;;;;;4984410;28;20631;-77
2022/02/19 00:34:39;;;;;;;2.60;0.75;;;6.90;99.90;;;;;;4982667;28;20244;-81
2022/02/19 00:37:05;;;;;;;10.95;1.75;;;6.80;99.90;;;;;;4964796;28;20313;-79
2022/02/19 00:39:31;;;;;;;6.63;1.65;;;6.90;99.90;;;;;;4984156;28;20177;-77
2022/02/19 00:41:57;;;;;;;2.67;1.10;;;6.90;99.90;;;;;;4980693;28;20190;-77
2022/02/19 00:44:28;;;;;;;14.05;1.83;;;7.00;99.90;;;;;;4981461;28;20220;-79
2022/02/19 00:46:55;;;;;;;14.73;1.80;;;7.00;99.90;;;;;;4982065;28;20213;-79
2022/02/19 00:49:20;;;;;;;11.32;1.80;;;7.00;99.90;;;;;;4984601;28;20170;-79
2022/02/19 00:51:46;;;;;;;5.75;1.70;;;7.00;99.90;;;;;;4984002;28;20173;-79
2022/02/19 00:54:11;;;;;;;4.90;1.00;;;7.00;99.90;;;;;;4985260;28;20577;-78
2022/02/19 00:56:37;;;;;;;7.03;1.55;;;7.00;99.90;;;;;;4986505;28;20252;-78
2022/02/19 00:59:03;;;;;;;5.20;1.70;;;7.00;99.90;;;;;;4969332;28;20227;-80
2022/02/19 01:01:28;;;;;;;4.82;0.80;;;6.90;99.90;;;;;;4983692;28;20676;-81
2022/02/19 01:03:54;;;;;;;6.80;1.33;;;7.00;99.90;;;;;;4978364;28;20197;-85
2022/02/19 01:06:21;;;;;;;13.80;1.90;;;7.00;99.90;;;;;;4980359;28;20185;-77
2022/02/19 01:08:52;;;;;;;2.50;1.00;;;6.90;99.90;;;;;;4980160;28;20543;-82
2022/02/19 01:11:21;;;;;;;11.55;1.30;;;6.90;99.90;;;;;;4980986;28;20176;-83
2022/02/19 01:13:48;;;;;;;5.97;1.05;;;6.90;99.90;;;;;;4979778;28;20317;-81
2022/02/19 01:16:14;;;;;;;4.25;1.23;;;6.90;99.90;;;;;;4980376;28;20174;-80
2022/02/19 01:18:40;;;;;;;4.78;0.85;;;6.80;99.90;;;;;;4976481;28;20162;-79
2022/02/19 01:21:05;;;;;;;6.97;1.02;;;6.70;99.90;;;;;;4976862;28;20656;-82
2022/02/19 01:23:31;;;;;;;2.20;0.60;;;6.60;99.90;;;;;;4976755;28;20200;-79
2022/02/19 01:25:57;;;;;;;4.85;1.60;;;6.60;99.90;;;;;;4976878;28;20217;-81
2022/02/19 01:28:22;;;;;;;7.60;1.50;;;6.50;99.90;;;;;;4976752;28;20245;-84
2022/02/19 01:30:48;;;;;;;5.55;0.80;;;6.50;99.90;;;;;;4976920;28;20234;-85
2022/02/19 01:33:13;;;;;;;4.53;0.90;;;6.50;99.90;;;;;;4976480;28;20178;-84
2022/02/19 01:35:39;;;;;;;8.73;1.40;;;6.50;99.90;;;;;;4977173;28;20177;-78
2022/02/19 01:38:05;;;;;;;5.55;0.73;;;6.60;99.90;;;;;;4960521;28;20181;-81
2022/02/19 01:40:31;;;;;;;8.30;1.63;;;6.70;99.90;;;;;;4976403;28;20170;-80
2022/02/19 01:42:56;;;;;;;8.70;1.17;;;6.70;99.90;;;;;;4978052;28;20173;-81
2022/02/19 01:45:22;;;;;;;4.53;1.35;;;6.60;99.90;;;;;;4981940;28;20269;-81
2022/02/19 01:47:48;;;;;;;7.72;1.20;;;6.60;99.90;;;;;;4979953;28;20177;-78
2022/02/19 01:50:14;;;;;;;4.05;1.15;;;6.50;99.90;;;;;;4975052;28;20221;-80
2022/02/19 01:52:42;;;;;;;10.40;1.00;;;6.50;99.90;;;;;;4974568;28;20173;-83
2022/02/19 01:55:10;;;;;;;5.20;0.95;;;6.50;99.90;;;;;;4974710;28;20251;-82
2022/02/19 01:57:35;;;;;;;11.98;1.40;;;6.50;99.90;;;;;;4957665;28;20253;-79
2022/02/19 02:00:03;;;;;;;3.90;1.40;;;6.40;99.90;;;;;;4974349;28;20265;-85
2022/02/19 02:02:28;;;;;;;6.68;1.20;;;6.40;99.90;;;;;;4975326;28;20510;-83
2022/02/19 02:04:54;;;;;;;6.25;0.85;;;6.40;99.90;;;;;;4974101;28;20209;-84
2022/02/19 02:07:21;;;;;;;4.55;0.82;;;6.30;99.90;;;;;;4974968;28;20560;-84
2022/02/19 02:09:47;;;;;;;10.75;2.15;;;6.20;99.90;;;;;;4974514;28;20622;-77
2022/02/19 02:12:13;;;;;;;8.25;1.05;;;6.30;99.90;;;;;;4974838;28;20216;-79
2022/02/19 02:14:41;;;;;;;1.67;0.80;;;6.30;99.90;;;;;;4974328;28;20550;-79
2022/02/19 02:17:11;;;;;;;5.65;1.77;;;6.20;99.90;;;;;;4974475;28;20157;-85
2022/02/19 02:19:37;;;;;;;13.25;1.23;;;6.20;99.90;;;;;;4976972;28;20168;-86
2022/02/19 02:22:05;;;;;;;4.05;1.15;;;6.20;99.90;;;;;;4979071;28;20209;-81
2022/02/19 02:24:33;;;;;;;2.92;1.05;;;6.10;99.90;;;;;;4978809;28;20308;-77
2022/02/19 02:27:00;;;;;;;4.75;1.17;;;6.10;99.90;;;;;;4981262;28;20213;-78
2022/02/19 02:29:25;;;;;;;3.97;1.23;;;6.10;99.90;;;;;;4992799;28;20186;-77
2022/02/19 02:31:51;;;;;;;2.67;1.25;;;6.00;99.90;;;;;;5001247;28;20184;-82
2022/02/19 02:34:19;;;;;;;9.52;1.50;;;6.00;99.90;;;;;;4989296;28;20682;-78
2022/02/19 02:36:44;;;;;;;2.63;0.80;;;5.90;99.90;;;;;;4964000;28;20170;-88
2022/02/19 02:39:10;;;;;;;3.65;1.35;;;5.90;99.90;;;;;;4979583;28;20181;-83
2022/02/19 02:41:36;;;;;;;7.30;1.08;;;5.90;99.90;;;;;;4979292;28;20701;-86
2022/02/19 02:44:01;;;;;;;3.83;1.10;;;5.90;99.90;;;;;;4979106;28;20211;-82
2022/02/19 02:46:27;;;;;;;2.63;0.80;;;5.90;99.90;;;;;;4978132;28;20174;-82
2022/02/19 02:48:52;;;;;;;2.83;1.05;;;5.90;99.90;;;;;;4978558;28;20166;-85
2022/02/19 02:51:18;;;;;;;6.20;1.35;;;5.80;99.90;;;;;;4979739;28;20178;-79
2022/02/19 02:53:44;;;;;;;5.32;0.82;;;5.80;99.90;;;;;;4979316;28;20581;-83
2022/02/19 02:56:09;;;;;;;7.53;1.40;;;5.90;99.90;;;;;;4979443;28;20217;-84
2022/02/19 02:58:35;;;;;;;2.83;0.75;;;5.80;99.90;;;;;;4979229;28;20217;-80
2022/02/19 03:01:01;;;;;;;4.30;1.25;;;5.80;99.90;;;;;;4980084;28;20177;-79
2022/02/19 03:03:26;;;;;;;3.13;1.30;;;5.90;99.90;;;;;;4979129;28;20265;-77
2022/02/19 03:05:52;;;;;;;2.28;0.77;;;5.80;99.90;;;;;;4978864;28;20193;-83
2022/02/19 03:08:17;;;;;;;2.83;1.30;;;5.90;99.90;;;;;;4978554;28;20166;-78
2022/02/19 03:10:43;;;;;;;13.52;1.30;;;5.90;99.90;;;;;;4978962;28;20216;-77
2022/02/19 03:13:09;;;;;;;5.45;1.25;;;5.90;99.90;;;;;;4978763;28;20166;-79
2022/02/19 03:15:34;;;;;;;6.47;0.90;;;5.90;99.90;;;;;;4979288;28;20173;-78
2022/02/19 03:18:00;;;;;;;4.00;1.13;;;5.80;99.90;;;;;;4978384;28;20172;-79
2022/02/19 03:20:27;;;;;;;2.63;0.77;;;5.80;99.90;;;;;;4978151;28;20217;-78
2022/02/19 03:22:53;;;;;;;5.32;0.80;;;5.70;99.90;;;;;;4978283;28;20252;-79
2022/02/19 03:25:18;;;;;;;4.43;1.00;;;5.70;99.90;;;;;;4979064;28;20265;-81
2022/02/19 03:27:44;;;;;;;9.88;1.40;;;5.70;99.90;;;;;;4977643;28;20194;-79
2022/02/19 03:30:12;;;;;;;6.40;1.45;;;5.80;99.90;;;;;;4976661;28;20193;-80
2022/02/19 03:32:38;;;;;;;7.18;0.98;;;5.80;99.90;;;;;;4959934;28;20209;-78
2022/02/19 03:35:05;;;;;;;3.55;0.90;;;5.70;99.90;;;;;;4976041;28;20190;-82
2022/02/19 03:37:34;;;;;;;11.20;1.00;;;5.70;99.90;;;;;;4977117;28;20166;-79
2022/02/19 03:40:06;;;;;;;7.03;1.42;;;5.70;99.90;;;;;;4977104;28;20166;-79
2022/02/19 03:42:35;;;;;;;6.20;1.10;;;5.70;99.90;;;;;;4978014;28;20170;-79
2022/02/19 03:45:02;;;;;;;5.32;1.40;;;5.70;99.90;;;;;;4977532;28;20221;-81
2022/02/19 03:47:27;;;;;;;6.75;0.90;;;5.80;99.90;;;;;;4981351;28;20194;-78
2022/02/19 03:49:53;;;;;;;5.00;0.90;;;5.80;99.90;;;;;;4984143;28;20174;-79
2022/02/19 03:52:19;;;;;;;2.10;0.70;;;5.70;99.90;;;;;;4983977;28;20182;-77
2022/02/19 03:54:44;;;;;;;4.05;1.13;;;5.70;99.90;;;;;;4984558;28;20193;-77
2022/02/19 03:57:10;;;;;;;1.77;1.05;;;5.70;99.90;;;;;;4962168;28;20587;-82
2022/02/19 03:59:36;;;;;;;6.28;1.63;;;5.70;99.90;;;;;;4978064;28;20176;-78
2022/02/19 04:02:01;;;;;;;1.95;1.00;;;5.70;99.90;;;;;;4977317;28;20162;-81
2022/02/19 04:04:27;;;;;;;8.98;2.55;;;5.70;99.90;;;;;;4977012;28;20565;-80
2022/02/19 04:06:52;;;;;;;5.43;1.00;;;5.70;99.90;;;;;;4959974;28;20332;-77
2022/02/19 04:09:18;;;;;;;5.43;1.55;;;5.70;99.90;;;;;;4960190;28;20657;-79
2022/02/19 04:11:43;;;;;;;6.78;1.15;;;5.60;99.90;;;;;;4976806;28;20256;-79
2022/02/19 04:14:09;;;;;;;6.78;1.52;;;5.70;99.90;;;;;;4975686;28;20190;-83
2022/02/19 04:16:35;;;;;;;5.57;1.50;;;5.60;99.90;;;;;;4978830;28;20165;-77
2022/02/19 04:19:00;;;;;;;6.47;1.25;;;5.60;99.90;;;;;;4981293;28;20164;-77
2022/02/19 04:21:26;;;;;;;9.32;1.80;;;5.50;99.90;;;;;;4977039;28;20216;-77
2022/02/19 04:23:52;;;;;;;4.78;1.38;;;5.50;99.90;;;;;;4976305;28;20196;-79
2022/02/19 04:26:18;;;;;;;10.43;2.17;;;5.50;99.90;;;;;;4979328;28;20222;-82
2022/02/19 04:28:44;;;;;;;7.68;1.23;;;5.50;99.90;;;;;;4978422;28;20213;-78
2022/02/19 04:31:11;;;;;;;9.88;1.55;;;5.50;99.90;;;;;;4978438;28;20176;-78
2022/02/19 04:33:36;;;;;;;9.48;1.02;;;5.50;99.90;;;;;;4977335;28;20547;-78
2022/02/19 04:36:02;;;;;;;5.68;1.27;;;5.60;99.90;;;;;;4979098;28;20186;-77
2022/02/19 04:38:28;;;;;;;7.75;1.30;;;5.60;99.90;;;;;;4980225;28;20824;-78
2022/02/19 04:40:53;;;;;;;6.22;1.20;;;5.50;99.90;;;;;;4977257;28;20517;-84
2022/02/19 04:43:20;;;;;;;8.90;1.38;;;5.50;99.90;;;;;;4982184;28;20193;-78
2022/02/19 04:45:45;;;;;;;2.20;0.85;;;5.50;99.90;;;;;;4993674;28;20233;-86
2022/02/19 04:48:11;;;;;;;12.10;1.50;;;5.50;99.90;;;;;;4995190;28;20162;-79
2022/02/19 04:50:37;;;;;;;9.50;1.35;;;5.50;99.90;;;;;;4977611;28;20180;-78
2022/02/19 04:53:05;;;;;;;10.18;1.42;;;5.50;99.90;;;;;;4978733;28;20595;-78
2022/02/19 04:55:31;;;;;;;10.88;2.00;;;5.50;99.90;;;;;;4976950;28;20178;-79
2022/02/19 04:57:56;;;;;;;21.60;1.60;;;5.50;99.90;;;;;;4976357;28;20174;-80
2022/02/19 05:00:22;;;;;;;12.55;1.70;;;5.50;99.90;;;;;;4959486;28;20181;-87
2022/02/19 05:02:48;;;;;;;10.82;1.92;;;5.50;99.90;;;;;;4977167;28;20170;-86
2022/02/19 05:05:13;;;;;;;10.40;2.08;;;5.50;99.90;;;;;;4976118;28;20209;-83
2022/02/19 05:07:39;;;;;;;4.80;1.20;;;5.50;99.90;;;;;;4979527;28;20587;-85
2022/02/19 05:10:05;;;;;;;16.15;1.75;;;5.50;99.90;;;;;;4978625;28;20182;-85
2022/02/19 05:12:32;;;;;;;9.85;1.15;;;5.50;99.90;;;;;;4975771;28;20166;-80
2022/02/19 05:14:58;;;;;;;3.30;1.05;;;5.50;99.90;;;;;;4965847;28;20205;-85
2022/02/19 05:17:24;;;;;;;8.20;1.58;;;5.50;99.90;;;;;;4958953;28;20265;-80
2022/02/19 05:19:49;;;;;;;9.07;1.50;;;5.50;99.90;;;;;;4976648;28;20632;-77
2022/02/19 05:22:16;;;;;;;16.15;1.98;;;5.60;99.90;;;;;;4976130;28;20166;-77
2022/02/19 05:24:41;;;;;;;3.70;1.48;;;5.50;99.90;;;;;;4958671;28;20694;-77
2022/02/19 05:27:07;;;;;;;7.47;1.40;;;5.50;99.90;;;;;;4976663;28;20181;-78
2022/02/19 05:29:35;;;;;;;5.38;1.08;;;5.50;99.90;;;;;;4976186;28;20208;-86
2022/02/19 05:32:01;;;;;;;8.52;1.42;;;5.50;99.90;;;;;;4975802;28;20166;-81
2022/02/19 05:34:26;;;;;;;17.92;1.80;;;5.50;99.90;;;;;;4975551;28;20185;-78
2022/02/19 05:36:52;;;;;;;12.05;1.70;;;5.50;99.90;;;;;;4958794;28;20574;-81
2022/02/19 05:39:21;;;;;;;5.07;1.38;;;5.50;99.90;;;;;;4976079;28;20178;-77
2022/02/19 05:41:46;;;;;;;9.98;1.25;;;5.60;99.90;;;;;;4977452;28;20240;-77
2022/02/19 05:44:12;;;;;;;7.22;1.42;;;5.50;99.90;;;;;;4975760;28;20651;-86
2022/02/19 05:46:37;;;;;;;6.88;1.25;;;5.50;99.90;;;;;;4974724;28;20224;-77
2022/02/19 05:49:03;;;;;;;4.40;1.55;;;5.50;99.90;;;;;;4974982;28;20166;-81
2022/02/19 05:51:29;;;;;;;13.57;1.95;;;5.50;99.90;;;;;;4975315;28;20165;-78
2022/02/19 05:53:55;;;;;;;10.98;1.70;;;5.50;99.90;;;;;;4978703;28;20681;-82
2022/02/19 05:56:21;;;;;;;12.05;2.08;;;5.40;99.90;;;;;;4982213;28;20166;-79
2022/02/19 05:58:47;;;;;;;6.90;2.40;;;5.40;99.90;;;;;;4965459;28;20657;-80
2022/02/19 06:01:13;;;;;;;7.00;1.80;;;5.50;99.90;;;;;;4981679;28;20193;-78
2022/02/19 06:03:41;;;;;;;14.63;1.88;;;5.50;99.90;;;;;;4982659;28;20533;-78
2022/02/19 06:06:07;;;;;;;12.18;1.88;;;5.50;99.90;;;;;;4982092;28;20674;-78
2022/02/19 06:08:33;;;;;;;8.55;2.05;;;5.40;99.90;;;;;;4981983;28;20228;-78
2022/02/19 06:10:59;;;;;;;10.90;2.50;;;5.40;99.90;;;;;;4981547;28;20174;-78
2022/02/19 06:13:27;;;;;;;7.97;2.05;;;5.50;99.90;;;;;;4983595;28;20635;-77
2022/02/19 06:15:58;;;;;;;5.15;1.20;;;5.40;99.90;;;;;;4965388;28;20642;-80
2022/02/19 06:18:26;;;;;;;16.13;1.95;;;5.50;99.90;;;;;;4984301;28;20172;-78
2022/02/19 06:20:56;;;;;;;14.90;1.90;;;5.40;99.90;;;;;;4992961;28;20169;-78
2022/02/19 06:23:21;;;;;;;10.75;1.40;;;5.30;99.90;;;;;;4989045;28;20201;-85
2022/02/19 06:25:47;;;;;;;6.57;1.23;;;5.50;99.90;;;;;;4984702;28;20205;-77
2022/02/19 06:28:13;;;;;;;9.32;1.77;;;5.50;99.90;;;;;;4982319;28;20635;-77
2022/02/19 06:30:39;;;;;;;13.70;1.92;;;5.40;99.90;;;;;;4983025;28;20188;-77
2022/02/19 06:33:04;;;;;;;8.25;1.40;;;5.50;99.90;;;;;;4981056;28;20170;-80
2022/02/19 06:35:30;;;;;;;10.18;2.10;;;5.40;99.90;;;;;;4980206;28;20170;-78
2022/02/19 06:37:56;;;;;;;7.72;1.30;;;5.30;99.90;;;;;;4980081;28;20523;-77
2022/02/19 06:40:21;;;;;;;4.07;1.63;;;5.30;99.90;;;;;;4979848;28;20174;-78
2022/02/19 06:42:47;;;;;;;8.75;1.92;;;5.20;99.90;;;;;;4979585;28;20193;-79
2022/02/19 06:45:12;;;;;;;10.32;1.77;;;5.20;99.90;;;;;;4979442;28;20643;-78
2022/02/19 06:47:38;;;;;;;18.40;2.00;;;5.20;99.90;;;;;;4979454;28;20170;-77
2022/02/19 06:50:06;;;;;;;8.18;1.38;;;5.30;99.90;;;;;;4978449;28;20181;-81
2022/02/19 06:52:31;;;;;;;26.55;2.17;;;5.30;99.90;;;;;;4978291;28;20269;-80
2022/02/19 06:54:57;;;;;;;11.15;2.60;;;5.30;99.90;;;;;;4979646;28;20236;-80
2022/02/19 06:57:23;;;;;;;10.18;1.92;;;5.20;99.90;;;;;;4979584;28;20181;-81
2022/02/19 06:59:50;;;;;;;11.90;2.47;;;5.20;99.90;;;;;;4979295;28;20174;-78
2022/02/19 07:02:19;;;;;;;16.90;1.75;;;5.20;99.90;;;;;;4979772;28;20208;-82
2022/02/19 07:04:46;;;;;;;16.23;2.17;;;5.30;99.90;;;;;;4979363;28;20301;-78
2022/02/19 07:07:12;;;;;;;12.05;1.80;;;5.40;99.90;;;;;;4975338;28;20170;-78
2022/02/19 07:09:38;;;;;;;14.27;2.63;;;5.50;99.90;;;;;;4962585;28;20582;-77
2022/02/19 07:12:05;;;;;;;13.07;2.00;;;5.40;99.90;;;;;;4988184;28;20166;-77
2022/02/19 07:14:31;;;;;;;14.27;1.73;;;5.30;99.90;;;;;;4999820;28;20196;-78
2022/02/19 07:17:04;;;;;;;15.65;1.27;;;5.30;99.90;;;;;;4963291;28;20269;-78
2022/02/19 07:19:33;;;;;;;11.02;1.50;;;5.40;99.90;;;;;;4976608;28;20257;-78
2022/02/19 07:22:00;;;;;;;16.52;2.13;;;5.50;99.90;;;;;;4976331;28;20186;-78
2022/02/19 07:24:25;;;;;;;18.13;1.30;;;5.50;99.90;;;;;;4975841;28;20205;-77
2022/02/19 07:26:51;;;;;;;9.05;1.52;;;5.50;99.90;;;;;;4976054;28;20173;-78
2022/02/19 07:29:16;;;;;;;8.55;1.95;;;5.50;99.90;;;;;;4976233;28;20178;-78
2022/02/19 07:31:42;;;;;;;5.32;1.77;;;5.40;99.90;;;;;;4975881;28;20174;-77
2022/02/19 07:34:08;;;;;;;13.52;2.55;;;5.40;99.90;;;;;;4976167;28;20627;-77
2022/02/19 07:36:33;;;;;;;17.42;1.77;;;5.40;99.90;;;;;;4958733;28;20182;-81
2022/02/19 07:38:59;;;;;;;19.02;2.08;;;5.60;99.90;;;;;;4975944;28;20162;-78
2022/02/19 07:41:25;;;;;;;15.18;2.20;;;5.60;99.90;;;;;;4975784;28;20257;-77
2022/02/19 07:43:50;;;;;;;11.93;2.33;;;5.50;99.90;;;;;;4975984;28;20193;-77
2022/02/19 07:46:16;;;;;;;3.90;1.50;;;5.60;99.90;;;;;;4976052;28;20201;-78
2022/02/19 07:48:41;;;;;;;9.48;1.67;;;5.50;99.90;;;;;;4958956;28;20283;-79
2022/02/19 07:58:18;;;;;;;8.68;1.58;;;5.70;99.90;;;;;;4976160;28;20212;-80
2022/02/19 07:59:27;;;;;;;12.82;2.20;;;5.90;99.90;;;;;;4976260;28;20196;-78
2022/02/19 08:01:52;;;;;;;4.47;1.70;;;5.90;99.90;;;;;;4976403;28;20162;-80
2022/02/19 08:04:19;;;;;;;13.30;2.35;;;6.20;99.90;;;;;;4975625;28;20276;-79
2022/02/19 08:06:45;;;;;;;14.55;1.75;;;6.20;99.90;;;;;;4975950;28;20158;-78
2022/02/19 08:09:11;;;;;;;11.20;2.25;;;6.10;99.90;;;;;;4975922;28;20649;-78
2022/02/19 08:11:37;;;;;;;5.68;1.40;;;6.10;99.90;;;;;;4975257;28;20170;-79
2022/02/19 08:14:02;;;;;;;8.10;1.40;;;6.00;99.90;;;;;;4976563;28;20566;-79
2022/02/19 08:16:28;;;;;;;7.07;3.10;;;6.00;99.90;;;;;;4988575;28;20166;-76
2022/02/19 08:18:54;;;;;;;9.45;1.52;;;6.10;99.90;;;;;;4985920;28;20170;-83
2022/02/19 08:21:20;;;;;;;3.83;1.30;;;6.10;99.90;;;;;;4985033;28;20242;-77
2022/02/19 08:23:49;;;;;;;8.55;2.13;;;6.10;99.90;;;;;;4988706;28;20560;-77
2022/02/19 08:26:18;;;;;;;8.02;1.52;;;6.20;99.90;;;;;;4984582;28;20210;-77
2022/02/19 08:28:44;;;;;;;12.35;2.33;;;6.40;99.90;;;;;;4982487;28;20177;-85
2022/02/19 08:31:09;;;;;;;5.53;1.60;;;6.50;99.90;;;;;;4978040;28;20170;-85
2022/02/19 08:33:35;;;;;;;7.75;1.48;;;6.60;99.90;;;;;;4975967;28;20186;-80
2022/02/19 08:36:01;;;;;;;4.47;1.27;;;6.60;99.90;;;;;;4966786;28;20650;-78
2022/02/19 08:38:26;;;;;;;8.20;1.65;;;6.60;99.90;;;;;;4955812;28;20184;-77
2022/02/19 08:40:52;;;;;;;12.38;1.75;;;6.70;99.90;;;;;;4971468;28;20205;-78
2022/02/19 08:43:17;;;;;;;11.20;1.25;;;6.90;99.90;;;;;;4954917;28;20170;-76
2022/02/19 08:45:43;;;;;;;4.53;1.38;;;6.90;99.90;;;;;;4970143;28;20216;-78
2022/02/19 08:48:11;;;;;;;5.13;0.93;;;6.90;99.90;;;;;;4956724;28;20173;-78
2022/02/19 08:50:39;;;;;;;4.85;1.20;;;6.70;99.90;;;;;;4973162;28;20181;-77
2022/02/19 08:53:04;;;;;;;9.10;1.80;;;6.80;99.90;;;;;;4974192;28;20197;-78
2022/02/19 08:55:30;;;;;;;10.90;1.10;;;6.80;99.90;;;;;;4974087;28;20165;-78
2022/02/19 08:57:56;;;;;;;10.82;1.77;;;6.70;99.90;;;;;;4973542;28;20619;-78
2022/02/19 09:00:22;;;;;;;9.77;1.60;;;6.80;99.90;;;;;;4973787;28;20178;-79
2022/02/19 09:02:48;;;;;;;8.90;1.52;;;6.80;99.90;;;;;;4956906;28;20301;-77
2022/02/19 09:05:15;;;;;;;7.70;1.42;;;6.90;99.90;;;;;;4972959;28;20687;-79
2022/02/19 09:07:41;;;;;;;6.53;1.15;;;6.90;99.90;;;;;;4972201;28;20178;-82
2022/02/19 09:10:09;;;;;;;5.10;1.85;;;7.00;99.90;;;;;;4974419;28;20189;-78
2022/02/19 09:12:36;;;;;;;17.52;1.80;;;7.10;99.90;;;;;;4974009;28;20262;-78
2022/02/19 09:15:02;;;;;;;7.22;1.52;;;7.30;99.90;;;;;;4973625;28;20194;-78
2022/02/19 09:17:28;;;;;;;12.07;2.13;;;7.40;99.90;;;;;;4973324;28;20174;-78
2022/02/19 09:19:54;;;;;;;12.50;1.80;;;7.40;99.90;;;;;;4955965;28;20162;-76
2022/02/19 09:22:19;;;;;;;7.63;1.50;;;7.40;99.90;;;;;;4973543;28;20645;-76
2022/02/19 09:24:45;;;;;;;5.50;1.33;;;7.30;99.90;;;;;;4973366;28;20611;-76
2022/02/19 09:27:10;;;;;;;10.45;2.05;;;7.40;99.90;;;;;;4973304;28;20170;-77
2022/02/19 09:29:36;;;;;;;6.30;1.48;;;7.30;99.90;;;;;;4972676;28;20543;-77
2022/02/19 09:32:02;;;;;;;11.35;1.90;;;7.30;99.90;;;;;;4975611;28;20174;-77
2022/02/19 09:34:27;;;;;;;8.88;2.47;;;7.20;99.90;;;;;;4976994;28;20220;-78
2022/02/19 09:36:53;;;;;;;3.90;1.80;;;7.20;99.90;;;;;;4994077;28;20162;-78
2022/02/19 09:39:19;;;;;;;3.42;1.05;;;7.30;99.90;;;;;;4984643;28;20198;-79
2022/02/19 09:41:47;;;;;;;15.52;1.50;;;7.30;99.90;;;;;;4973187;28;20831;-79
2022/02/19 09:44:14;;;;;;;4.97;1.52;;;7.30;99.90;;;;;;4972316;28;20193;-79
2022/02/19 09:46:40;;;;;;;5.63;1.17;;;7.30;99.90;;;;;;4971181;28;20261;-80
2022/02/19 09:49:07;;;;;;;11.35;1.83;;;7.30;99.90;;;;;;4971170;28;20173;-83
2022/02/19 09:51:34;;;;;;;7.93;1.45;;;7.40;99.90;;;;;;4958152;28;20177;-90
2022/02/19 09:54:00;;;;;;;8.32;1.40;;;7.40;99.90;;;;;;4981417;28;20209;-78
2022/02/19 09:56:28;;;;;;;6.80;1.48;;;7.50;99.90;;;;;;4975161;28;20170;-78
2022/02/19 09:58:55;;;;;;;10.48;1.92;;;7.60;99.90;;;;;;4974400;28;20166;-86
2022/02/19 10:01:23;;;;;;;7.30;1.75;;;7.80;99.90;;;;;;4973613;28;20170;-79
2022/02/19 10:04:01;;;;;;;11.20;1.50;;;7.90;99.90;;;;;;4973531;28;20193;-77
2022/02/19 10:06:33;;;;;;;9.05;1.85;;;8.00;99.90;;;;;;4974708;28;20209;-87
2022/02/19 10:09:16;;;;;;;7.30;2.08;;;8.00;99.90;;;;;;4974132;28;20181;-81
2022/02/19 10:11:42;;;;;;;10.80;2.05;;;7.90;99.90;;;;;;4973529;28;20162;-78
2022/02/19 10:14:23;;;;;;;5.13;1.25;;;8.00;99.90;;;;;;4973294;28;20273;-82
2022/02/19 10:17:22;;;;;;;5.25;1.50;;;8.00;99.90;;;;;;4973502;28;20391;-79
2022/02/19 10:20:01;;;;;;;9.70;1.20;;;8.00;99.90;;;;;;4973410;28;20166;-80
2022/02/19 10:22:31;;;;;;;3.92;1.10;;;7.90;99.90;;;;;;4973609;28;20174;-78
2022/02/19 10:25:06;;;;;;;14.23;1.98;;;8.10;99.90;;;;;;4973641;28;20288;-78
2022/02/19 10:27:40;;;;;;;6.82;1.48;;;8.10;99.90;;;;;;4973137;28;20215;-79
2022/02/19 10:30:07;;;;;;;7.47;1.20;;;8.20;99.90;;;;;;4955631;28;20717;-83
2022/02/19 10:32:46;;;;;;;2.92;1.40;;;8.10;99.90;;;;;;4973473;28;20205;-83
2022/02/19 10:35:12;;;;;;;2.58;1.30;;;8.00;99.90;;;;;;4956598;28;20207;-82
2022/02/19 10:37:51;;;;;;;13.57;2.33;;;8.10;99.90;;;;;;4955658;28;20261;-79
2022/02/19 10:40:49;;;;;;;11.00;2.03;;;8.60;99.90;;;;;;4957127;28;20248;-80
2022/02/19 10:43:22;;;;;;;5.75;1.25;;;9.10;99.90;;;;;;4959124;28;20193;-78
2022/02/19 10:46:06;;;;;;;4.68;1.15;;;9.00;99.90;;;;;;4976708;28;20205;-79
2022/02/19 10:48:34;;;;;;;6.85;1.48;;;8.70;99.90;;;;;;4976609;28;20252;-80
2022/02/19 10:51:12;;;;;;;6.97;1.13;;;8.70;99.90;;;;;;4976912;28;20224;-85
2022/02/19 10:53:40;;;;;;;3.38;1.00;;;8.90;99.90;;;;;;4960371;28;20193;-85
2022/02/19 10:56:15;;;;;;;8.02;1.00;;;8.90;99.90;;;;;;4958958;28;20174;-86
2022/02/19 10:59:03;;;;;;;7.40;1.38;;;8.80;99.90;;;;;;4959423;28;20196;-82
2022/02/19 11:01:44;;;;;;;9.65;1.60;;;8.70;99.90;;;;;;4977881;28;20178;-80
2022/02/19 11:04:12;;;;;;;3.50;0.95;;;8.70;99.90;;;;;;4977269;28;20264;-83
2022/02/19 11:06:38;;;;;;;7.78;1.48;;;8.80;99.90;;;;;;4976926;28;20209;-83
2022/02/19 11:09:06;;;;;;;5.15;1.15;;;8.90;99.90;;;;;;4976145;28;20257;-83
2022/02/19 11:11:37;;;;;;;12.90;1.75;;;9.00;99.90;;;;;;4975957;28;20178;-82
2022/02/19 11:14:03;;;;;;;6.43;1.25;;;9.00;99.90;;;;;;4958877;28;20197;-83
2022/02/19 11:16:31;;;;;;;11.32;1.67;;;8.90;99.90;;;;;;4976012;28;20634;-79
2022/02/19 11:18:58;;;;;;;3.70;1.52;;;8.80;99.90;;;;;;4976510;28;20230;-79
2022/02/19 11:21:25;;;;;;;10.05;1.42;;;8.70;99.90;;;;;;4976121;28;20170;-80
2022/02/19 11:23:53;;;;;;;14.15;2.15;;;8.60;99.90;;;;;;4976305;28;20205;-79
2022/02/19 11:26:21;;;;;;;8.85;1.70;;;8.70;99.90;;;;;;4975805;28;20773;-79
2022/02/19 11:28:47;;;;;;;7.00;2.20;;;8.70;99.90;;;;;;4976056;28;20182;-77
2022/02/19 11:31:14;;;;;;;3.33;1.27;;;8.70;99.90;;;;;;4975185;28;20181;-80
2022/02/19 11:33:43;;;;;;;10.13;1.30;;;8.70;99.90;;;;;;4974784;28;20269;-78
2022/02/19 11:36:09;;;;;;;8.02;1.95;;;8.60;99.90;;;;;;4976384;28;20174;-78
2022/02/19 11:38:46;;;;;;;6.78;1.52;;;8.60;99.90;;;;;;4976138;28;20649;-81
2022/02/19 11:41:15;;;;;;;3.22;1.30;;;8.60;99.90;;;;;;4976498;28;20197;-79
2022/02/19 11:43:43;;;;;;;5.10;1.65;;;8.60;99.90;;;;;;4976742;28;20245;-82
2022/02/19 11:46:15;;;;;;;7.65;1.48;;;8.60;99.90;;;;;;4958812;28;20462;-77
2022/02/19 11:48:46;;;;;;;7.28;1.70;;;8.70;99.90;;;;;;4984591;28;20158;-77
2022/02/19 11:51:20;;;;;;;11.65;1.40;;;8.60;99.90;;;;;;4994694;28;20161;-79
2022/02/19 11:53:50;;;;;;;13.52;1.48;;;8.60;99.90;;;;;;4987668;28;20196;-78
2022/02/19 11:56:35;;;;;;;17.90;1.73;;;8.80;99.90;;;;;;4975700;28;20217;-78
2022/02/19 11:59:02;;;;;;;4.55;1.23;;;9.00;99.90;;;;;;4975361;28;20166;-82
2022/02/19 12:01:29;;;;;;;9.95;1.75;;;9.10;99.90;;;;;;4975939;28;20297;-85
2022/02/19 12:04:10;;;;;;;4.88;1.50;;;9.10;99.90;;;;;;4958734;28;20624;-77
2022/02/19 12:07:07;;;;;;;4.57;1.60;;;9.10;99.90;;;;;;4975411;28;20182;-81
2022/02/19 12:09:53;;;;;;;5.70;1.45;;;9.10;99.90;;;;;;4975490;28;20631;-79
2022/02/19 12:12:19;;;;;;;6.45;1.67;;;9.30;99.90;;;;;;4975727;28;20205;-79
2022/02/19 12:14:50;;;;;;;11.32;1.95;;;9.40;99.90;;;;;;4975423;28;20225;-79
2022/02/19 12:17:22;;;;;;;4.32;1.52;;;9.40;99.90;;;;;;4975393;28;20677;-80
2022/02/19 12:20:06;;;;;;;8.50;1.63;;;9.30;99.90;;;;;;4975466;28;20170;-78
2022/02/19 12:22:39;;;;;;;8.32;2.03;;;9.10;99.90;;;;;;4975567;28;20170;-79
2022/02/19 12:25:10;;;;;;;6.80;1.30;;;9.10;99.90;;;;;;4975249;28;20212;-78
2022/02/19 12:27:40;;;;;;;7.10;1.50;;;9.10;99.90;;;;;;4975305;28;20178;-79
2022/02/19 12:30:26;;;;;;;14.52;1.58;;;9.30;99.90;;;;;;4975673;28;20196;-80
2022/02/19 12:32:55;;;;;;;9.93;1.88;;;9.20;99.90;;;;;;4975102;28;20202;-79
2022/02/19 12:35:34;;;;;;;10.35;2.13;;;9.30;99.90;;;;;;4957932;28;20288;-79
2022/02/19 12:38:00;;;;;;;4.95;1.92;;;9.40;99.90;;;;;;4975450;28;20177;-81
2022/02/19 12:40:25;;;;;;;7.78;2.78;;;9.50;99.90;;;;;;4979478;28;20194;-78
2022/02/19 12:42:51;;;;;;;6.65;1.70;;;9.80;99.90;;;;;;4963079;28;20197;-81
2022/02/19 12:45:18;;;;;;;8.02;2.25;;;9.80;99.90;;;;;;4981435;28;20209;-78
2022/02/19 12:47:44;;;;;;;11.88;2.30;;;10.00;99.90;;;;;;4983083;28;20719;-77
2022/02/19 12:50:12;;;;;;;4.68;1.88;;;10.20;99.90;;;;;;4975934;28;20174;-81
2022/02/19 12:52:38;;;;;;;10.20;1.52;;;10.20;99.90;;;;;;4975446;28;20249;-82
2022/02/19 12:55:16;;;;;;;5.78;1.13;;;10.20;99.90;;;;;;4975377;28;20254;-79
2022/02/19 12:57:43;;;;;;;10.90;1.80;;;10.20;99.90;;;;;;4975382;28;20178;-78
2022/02/19 13:00:08;;;;;;;8.98;1.60;;;10.40;99.90;;;;;;4974980;28;20174;-81